Etusivu
METAR-TAF:

METAR-TAF

Lentoasemat :

Páros, Kreikka

Leveyspiiri: 37-01-15N, Pituuspiiri: 025-06-46E, korkeus merenpinnasta: 38 m

Tämänhetkinen sää

Tämä raportti tehtiin 30 minuuttia sitten, kello 09.50 UTC
Tuuli 12 kn etelästä
Lämpötila 18°C
Kosteus 68%
Ilmanpaine 1017 hPa
Näkyvyys 10 km tai enemmän
Muutamia pilviä 2500 ft:n korkeudessa

METAR: LGPA 140950Z 19012KT 9999 FEW025 18/12 Q1017

Aika: 13:20 (10:20 UTC)


TAF: puuttuu

Säähavainnot ja -ennusteet yli 4000 lentoasemalta (METAR- ja TAF-raportit).

Käytössä olevat sääasemat on merkitty karttaan keltaisilla ja punaisilla pisteillä.

Aseta hiiri pisteen päälle nähdäksesi sääaseman nimen.

Klikkaa sitten nähdäksesi säähavainnot ja -ennusteet.

Kartan vaihtaminen: klikkaa mustalla rastilla varustettuja vihreitä pisteitä, niin voit zoomata sisään; viivalla varustettua vihreää pistettä, niin voit zoomata ulos tai vihreitä nuolia, niin pääset viereisille kartoille.


METAR-TAF: